Weyauwega, Wisconsin
Current Conditions -  °F | °C
As of 4:55 AM on Friday 31 Oct 2014 (Local Time) from KPCZ Reporting Station
Broken Clouds Broken Clouds  
Wind Chill: 26°   Ceiling: 4000
Heat Index: 35°   Visibility: 10mi
Dew Point: 30°   Wind: 14mph
Humidity: 82%   Direction: 340°NNW
Pressure: 30.17"   Gusts: 21mph
Location:  44.32°N, 88.93°W
Report Text: KPCZ 310955Z AUTO 34012G18KT 10SM BKN040 02/M01 A3017 RMK AO2 T00171010
Loading
Personal Weather Stations






























Interactive Weather Map
Tropical Storm Tracking
New forecast layout! Learn more

10-Day Weather Forecast

Advertisements
Track Severe Weather on mobile